Time;durP1;ratioP1;P1;durP2;ratioP2;P2;SDS_P1;SDS_P2;PMS_P1;PMS_P2;Temp;Humidity;BMP_temperature;BMP_pressure;BME280_temperature;BME280_humidity;BME280_pressure;Samples;Min_cycle;Max_cycle;Signal;HPM_P1;HPM_P2
2023/01/27 00:02:00;;;;;;;83.88;27.45;;;1.60;99.90;;;;;;2603225;54;20026;31
2023/01/27 00:04:38;;;;;;;83.93;26.50;;;1.60;99.90;;;;;;2603461;54;20034;31
2023/01/27 00:07:13;;;;;;;70.45;26.63;;;1.60;99.90;;;;;;2701975;39;20412;31
2023/01/27 00:09:49;;;;;;;80.40;28.60;;;1.60;99.90;;;;;;2621622;46;20085;31
2023/01/27 00:15:16;;;;;;;79.90;27.63;;;1.60;99.90;;;;;;2603255;54;20032;31
2023/01/27 00:17:50;;;;;;;97.20;28.77;;;1.60;99.90;;;;;;2602096;54;20820;31
2023/01/27 00:26:13;;;;;;;93.05;30.65;;;1.50;99.90;;;;;;2603273;54;20027;31
2023/01/27 00:28:47;;;;;;;;;;;1.50;99.90;;;;;;2620707;46;20065;31
2023/01/27 00:34:11;;;;;;;122.90;31.10;;;1.40;99.90;;;;;;2603396;54;20037;31
2023/01/27 00:36:57;;;;;;;104.68;31.77;;;1.40;99.90;;;;;;2603163;54;21023;31
2023/01/27 00:39:38;;;;;;;116.00;34.30;;;1.40;99.90;;;;;;2603106;54;20028;31
2023/01/27 00:42:16;;;;;;;114.00;33.28;;;1.40;99.90;;;;;;2611503;46;20018;31
2023/01/27 00:47:41;;;;;;;113.65;33.45;;;1.40;99.90;;;;;;2612771;46;20052;31
2023/01/27 00:50:18;;;;;;;86.05;29.63;;;1.40;99.90;;;;;;2603129;54;20026;31
2023/01/27 00:52:57;;;;;;;105.45;29.50;;;1.40;99.90;;;;;;2603160;54;20022;31
2023/01/27 00:55:35;;;;;;;111.05;30.08;;;1.40;99.90;;;;;;2603234;54;20104;31
2023/01/27 00:58:12;;;;;;;93.82;29.70;;;1.30;99.90;;;;;;2608761;46;20025;31
2023/01/27 01:00:48;;;;;;;100.20;31.15;;;1.40;99.90;;;;;;2617626;46;20034;31
2023/01/27 01:03:25;;;;;;;107.63;29.77;;;1.30;99.90;;;;;;2620336;47;20030;31
2023/01/27 01:06:03;;;;;;;97.38;28.77;;;1.30;99.90;;;;;;2602353;54;20093;31
2023/01/27 01:08:44;;;;;;;75.90;27.67;;;1.30;99.90;;;;;;2602284;54;20036;31
2023/01/27 01:11:20;;;;;;;104.47;29.08;;;1.40;99.90;;;;;;2602151;54;20030;31
2023/01/27 01:13:55;;;;;;;93.40;28.73;;;1.40;99.90;;;;;;2602724;54;20092;31
2023/01/27 01:16:34;;;;;;;87.10;27.55;;;1.40;99.90;;;;;;2602797;54;20027;31
2023/01/27 01:19:14;;;;;;;99.80;28.75;;;1.40;99.90;;;;;;2602953;54;20027;31
2023/01/27 01:21:54;;;;;;;97.63;29.77;;;1.40;99.90;;;;;;2603084;54;20045;31
2023/01/27 01:27:47;;;;;;;93.57;31.10;;;1.40;99.90;;;;;;2602928;54;20030;31
2023/01/27 01:30:31;;;;;;;82.07;27.80;;;1.40;99.90;;;;;;2602980;54;20904;31
2023/01/27 01:33:06;;;;;;;93.78;28.17;;;1.40;99.90;;;;;;2611123;47;20072;31
2023/01/27 01:35:42;;;;;;;89.95;29.60;;;1.40;99.90;;;;;;2621441;47;20030;31
2023/01/27 01:38:17;;;;;;;99.25;30.02;;;1.50;99.90;;;;;;2603152;54;20031;31
2023/01/27 01:40:56;;;;;;;77.30;28.65;;;1.50;99.90;;;;;;2602847;54;20030;31
2023/01/27 01:43:31;;;;;;;95.53;27.67;;;1.50;99.90;;;;;;2621754;47;20112;31
2023/01/27 01:46:07;;;;;;;109.15;28.95;;;1.50;99.90;;;;;;2603165;54;20030;31
2023/01/27 01:48:42;;;;;;;106.30;27.65;;;1.50;99.90;;;;;;2602972;54;20080;31
2023/01/27 01:51:20;;;;;;;111.60;29.88;;;1.50;99.90;;;;;;2603732;54;20861;31
2023/01/27 01:53:55;;;;;;;98.77;28.80;;;1.50;99.90;;;;;;2621747;46;20874;31
2023/01/27 01:56:36;;;;;;;97.55;29.80;;;1.40;99.90;;;;;;2603768;54;20253;31
2023/01/27 01:59:13;;;;;;;78.20;28.10;;;1.40;99.90;;;;;;2604051;54;20121;31
2023/01/27 02:01:48;;;;;;;78.47;27.55;;;1.50;99.90;;;;;;2603637;54;20891;31
2023/01/27 02:04:25;;;;;;;89.07;29.70;;;1.50;99.90;;;;;;2603699;54;20874;31
2023/01/27 02:07:02;;;;;;;123.95;33.25;;;1.50;99.90;;;;;;2621851;46;20297;31
2023/01/27 02:09:37;;;;;;;97.13;28.77;;;1.50;99.90;;;;;;2603880;54;20053;31
2023/01/27 02:12:14;;;;;;;96.35;29.90;;;1.50;99.90;;;;;;2721212;39;21030;31
2023/01/27 02:14:48;;;;;;;85.95;28.88;;;1.50;99.90;;;;;;2603825;54;20023;31
2023/01/27 02:17:22;;;;;;;125.50;32.08;;;1.50;99.90;;;;;;2622448;46;20089;31
2023/01/27 02:20:00;;;;;;;96.05;30.23;;;1.50;99.90;;;;;;2622149;46;20781;31
2023/01/27 02:22:38;;;;;;;107.75;29.70;;;1.50;99.90;;;;;;2622408;46;20034;31
2023/01/27 02:25:18;;;;;;;94.70;29.10;;;1.50;99.90;;;;;;2622200;46;20052;31
2023/01/27 02:27:55;;;;;;;100.85;31.27;;;1.50;99.90;;;;;;2603501;54;20026;31
2023/01/27 02:30:35;;;;;;;108.85;30.45;;;1.60;99.90;;;;;;2603806;54;20026;31
2023/01/27 02:33:13;;;;;;;101.63;27.63;;;1.50;99.90;;;;;;2621826;46;20959;31
2023/01/27 02:35:51;;;;;;;88.90;27.65;;;1.50;99.90;;;;;;2603696;54;20740;31
2023/01/27 02:38:25;;;;;;;88.90;29.35;;;1.50;99.90;;;;;;2622200;46;20873;31
2023/01/27 02:41:04;;;;;;;96.45;28.35;;;1.50;99.90;;;;;;2622150;46;20038;31
2023/01/27 02:43:44;;;;;;;93.07;27.13;;;1.50;99.90;;;;;;2621400;46;19957;31
2023/01/27 02:46:21;;;;;;;86.95;26.55;;;1.50;99.90;;;;;;2720152;39;21325;31
2023/01/27 02:52:03;;;;;;;89.38;25.77;;;1.50;99.90;;;;;;2603596;54;20034;31
2023/01/27 02:54:39;;;;;;;71.78;25.02;;;1.40;99.90;;;;;;2602767;54;20025;31
2023/01/27 02:57:15;;;;;;;77.35;24.15;;;1.40;99.90;;;;;;2603564;54;20052;31
2023/01/27 03:00:08;;;;;;;82.40;25.73;;;1.40;99.90;;;;;;2622042;46;20030;31
2023/01/27 03:02:44;;;;;;;95.65;25.52;;;1.40;99.90;;;;;;2603710;54;20030;31
2023/01/27 03:05:22;;;;;;;73.93;23.27;;;1.30;99.90;;;;;;2621089;46;20077;31
2023/01/27 03:07:56;;;;;;;76.40;24.73;;;1.30;99.90;;;;;;2622109;46;20031;31
2023/01/27 03:10:31;;;;;;;81.03;25.65;;;1.40;99.90;;;;;;2602962;54;20034;31
2023/01/27 03:13:06;;;;;;;71.00;23.25;;;1.30;99.90;;;;;;2603565;54;20022;31
2023/01/27 03:18:46;;;;;;;94.57;26.33;;;1.40;99.90;;;;;;2603479;54;20026;31
2023/01/27 03:21:35;;;;;;;94.65;26.15;;;1.30;99.90;;;;;;2618820;46;20026;31
2023/01/27 03:24:31;;;;;;;92.00;28.27;;;1.30;99.90;;;;;;2603386;54;20075;31
2023/01/27 03:27:11;;;;;;;110.40;29.90;;;1.30;99.90;;;;;;2621692;46;20148;31
2023/01/27 03:30:09;;;;;;;97.97;26.97;;;1.30;99.90;;;;;;2603403;54;20045;31
2023/01/27 03:32:48;;;;;;;95.05;28.67;;;1.30;99.90;;;;;;2603624;54;20030;31
2023/01/27 03:46:56;;;;;;;94.55;27.20;;;1.10;99.90;;;;;;2720617;39;20606;31
2023/01/27 03:49:33;;;;;;;102.28;30.27;;;1.10;99.90;;;;;;2603481;54;20057;31
2023/01/27 03:52:08;;;;;;;114.17;28.13;;;1.10;99.90;;;;;;2603366;54;20942;31
2023/01/27 03:54:45;;;;;;;111.32;31.23;;;1.10;99.90;;;;;;2603483;54;20789;31
2023/01/27 03:57:19;;;;;;;126.28;31.48;;;1.10;99.90;;;;;;2701891;39;20423;31
2023/01/27 03:59:54;;;;;;;106.28;28.70;;;1.10;99.90;;;;;;2701860;39;20554;31
2023/01/27 04:08:07;;;;;;;104.05;31.92;;;1.00;99.90;;;;;;2603387;54;20045;31
2023/01/27 04:11:53;;;;;;;103.15;30.38;;;1.00;99.90;;;;;;2603397;54;20862;31
2023/01/27 04:13:34;;;;;;;92.18;31.77;;;1.00;99.90;;;;;;2603408;54;20056;31
2023/01/27 04:16:10;;;;;;;116.30;31.63;;;1.00;99.90;;;;;;2621844;46;20835;31
2023/01/27 04:18:45;;;;;;;118.83;32.70;;;1.00;99.90;;;;;;2603405;54;20905;31
2023/01/27 04:21:26;;;;;;;92.47;30.73;;;0.90;99.90;;;;;;2621754;46;20027;31
2023/01/27 04:24:00;;;;;;;116.95;30.15;;;1.00;99.90;;;;;;2602495;54;20034;31
2023/01/27 04:26:37;;;;;;;95.35;29.25;;;1.00;99.90;;;;;;2603421;54;20026;31
2023/01/27 04:29:13;;;;;;;109.25;31.45;;;0.90;99.90;;;;;;2603348;54;20739;31
2023/01/27 04:31:48;;;;;;;118.10;31.60;;;0.90;99.90;;;;;;2621628;46;20041;31
2023/01/27 04:34:23;;;;;;;112.93;31.23;;;0.90;99.90;;;;;;2621851;46;20037;31
2023/01/27 04:37:02;;;;;;;137.85;33.53;;;0.90;99.90;;;;;;2622077;46;20030;31
2023/01/27 04:39:36;;;;;;;148.17;35.43;;;0.90;99.90;;;;;;2621616;46;20866;31
2023/01/27 04:42:10;;;;;;;94.75;29.13;;;0.90;99.90;;;;;;2603172;54;20037;31
2023/01/27 04:44:46;;;;;;;106.40;29.80;;;0.90;99.90;;;;;;2603211;54;20022;31
2023/01/27 04:47:21;;;;;;;106.20;33.77;;;0.90;99.90;;;;;;2603129;54;20027;31
2023/01/27 04:49:55;;;;;;;126.35;33.95;;;1.00;99.90;;;;;;2720168;39;20836;31
2023/01/27 04:52:33;;;;;;;146.48;34.60;;;0.90;99.90;;;;;;2603211;54;20588;31
2023/01/27 04:55:08;;;;;;;144.03;34.93;;;0.90;99.90;;;;;;2603025;54;20910;31
2023/01/27 04:57:45;;;;;;;139.32;32.58;;;0.90;99.90;;;;;;2603063;54;21066;31
2023/01/27 05:00:22;;;;;;;128.20;33.70;;;0.90;99.90;;;;;;2621615;46;20050;31
2023/01/27 05:02:59;;;;;;;117.67;33.83;;;0.90;99.90;;;;;;2621939;46;20899;31
2023/01/27 05:05:33;;;;;;;127.30;35.83;;;0.90;99.90;;;;;;2620088;47;20245;31
2023/01/27 05:08:13;;;;;;;136.05;34.17;;;0.90;99.90;;;;;;2621503;47;21089;31
2023/01/27 05:10:54;;;;;;;118.30;34.20;;;1.00;99.90;;;;;;2620977;47;20035;31
2023/01/27 05:13:29;;;;;;;142.23;33.33;;;1.00;99.90;;;;;;2603118;54;20046;31
2023/01/27 05:16:15;;;;;;;119.63;33.63;;;0.90;99.90;;;;;;2603337;54;20038;31
2023/01/27 05:18:51;;;;;;;130.25;32.95;;;1.00;99.90;;;;;;2603127;54;20027;31
2023/01/27 05:21:29;;;;;;;113.88;30.98;;;0.90;99.90;;;;;;2603068;54;20042;31
2023/01/27 05:24:07;;;;;;;143.65;34.38;;;0.90;99.90;;;;;;2603256;54;20867;31
2023/01/27 05:26:42;;;;;;;139.32;35.65;;;0.90;99.90;;;;;;2603889;54;20019;31
2023/01/27 05:29:16;;;;;;;130.30;32.42;;;0.90;99.90;;;;;;2603926;54;20809;31
2023/01/27 05:31:52;;;;;;;108.68;32.42;;;1.00;99.90;;;;;;2604034;54;20049;31
2023/01/27 05:34:32;;;;;;;132.05;33.95;;;0.90;99.90;;;;;;2603631;54;20025;31
2023/01/27 05:37:08;;;;;;;185.40;35.50;;;0.90;99.90;;;;;;2603975;54;20063;31
2023/01/27 05:39:46;;;;;;;136.30;35.03;;;0.90;99.90;;;;;;2603703;54;20022;31
2023/01/27 05:42:21;;;;;;;185.68;35.97;;;0.90;99.90;;;;;;2622182;46;20038;31
2023/01/27 05:44:56;;;;;;;136.98;34.17;;;0.90;99.90;;;;;;2603719;54;21004;31
2023/01/27 05:47:31;;;;;;;158.32;36.58;;;1.00;99.90;;;;;;2603730;54;20887;31
2023/01/27 05:50:08;;;;;;;213.77;39.15;;;1.00;99.90;;;;;;2604000;54;20031;31
2023/01/27 05:52:45;;;;;;;215.57;39.92;;;0.90;99.90;;;;;;2603756;54;20042;31
2023/01/27 05:55:27;;;;;;;199.18;40.22;;;0.90;99.90;;;;;;2603730;54;19961;31
2023/01/27 05:58:01;;;;;;;143.80;35.05;;;0.90;99.90;;;;;;2603912;54;20841;31
2023/01/27 06:00:36;;;;;;;209.85;40.08;;;0.90;99.90;;;;;;2603685;54;20030;31
2023/01/27 06:03:20;;;;;;;156.23;37.83;;;0.90;99.90;;;;;;2603632;54;20030;31
2023/01/27 06:06:06;;;;;;;178.80;37.40;;;0.90;99.90;;;;;;2603501;54;20837;31
2023/01/27 06:08:55;;;;;;;215.65;40.38;;;0.90;99.90;;;;;;2603969;54;20061;31
2023/01/27 06:35:49;;;;;;;169.20;36.75;;;1.00;99.90;;;;;;2600377;54;20007;31
2023/01/27 06:44:47;;;;;;;112.43;33.83;;;1.00;99.90;;;;;;2600779;54;20019;31
2023/01/27 06:47:38;;;;;;;131.33;33.93;;;1.00;99.90;;;;;;2630587;54;20239;-95
2023/01/27 06:53:21;;;;;;;133.02;32.90;;;1.00;99.90;;;;;;2617921;46;20033;31
2023/01/27 06:59:23;;;;;;;130.27;33.13;;;1.00;99.90;;;;;;2601744;54;20925;31
2023/01/27 07:05:04;;;;;;;107.40;30.55;;;1.10;99.90;;;;;;2604054;46;20030;31
2023/01/27 07:14:11;;;;;;;88.57;27.70;;;1.10;99.90;;;;;;2601124;54;20960;31
2023/01/27 07:20:33;;;;;;;130.73;34.17;;;1.10;99.90;;;;;;2605973;46;20883;31
2023/01/27 07:23:16;;;;;;;129.93;33.45;;;1.20;99.90;;;;;;2619501;46;21034;31
2023/01/27 07:26:02;;;;;;;106.70;31.50;;;1.10;99.90;;;;;;2602427;54;20055;31
2023/01/27 08:08:03;;;;;;;99.10;25.90;;;1.20;99.90;;;;;;2600973;54;20015;31
2023/01/27 08:13:55;;;;;;;132.32;29.67;;;1.20;99.90;;;;;;2603376;54;20238;31
2023/01/27 08:22:18;;;;;;;120.53;30.77;;;1.20;99.90;;;;;;2603321;54;20048;31
2023/01/27 08:24:58;;;;;;;135.95;29.67;;;1.20;99.90;;;;;;2603439;54;20032;31
2023/01/27 08:27:47;;;;;;;105.35;27.70;;;1.20;99.90;;;;;;2603279;54;20078;31
2023/01/27 08:30:50;;;;;;;94.25;26.45;;;1.30;99.90;;;;;;2603216;54;20030;31
2023/01/27 08:36:28;;;;;;;100.70;28.75;;;1.20;99.90;;;;;;2603216;54;20021;31
2023/01/27 08:39:11;;;;;;;84.30;24.65;;;1.20;99.90;;;;;;2603194;54;20049;31
2023/01/27 08:42:06;;;;;;;92.80;25.92;;;1.20;99.90;;;;;;2603233;54;20597;31
2023/01/27 08:47:41;;;;;;;79.83;26.77;;;1.20;99.90;;;;;;2621865;46;20031;31
2023/01/27 08:50:22;;;;;;;90.18;25.65;;;1.20;99.90;;;;;;2621653;46;20042;31
2023/01/27 11:22:54;;;;;;;65.40;25.58;;;1.90;99.90;;;;;;2610266;54;20034;31
2023/01/27 11:25:51;;;;;;;58.85;21.92;;;1.90;99.90;;;;;;2602903;54;20875;31
2023/01/27 11:28:53;;;;;;;58.33;24.63;;;2.00;99.90;;;;;;2791713;31;20514;31
2023/01/27 11:31:57;;;;;;;61.08;27.73;;;1.90;99.90;;;;;;2773214;31;20620;31
2023/01/27 11:38:23;;;;;;;53.85;24.27;;;1.90;99.90;;;;;;2603577;54;20023;31
2023/01/27 11:51:27;;;;;;;114.55;46.40;;;1.80;99.90;;;;;;2603245;54;20044;31
2023/01/27 11:54:13;;;;;;;133.88;51.08;;;1.80;99.90;;;;;;2603244;54;20772;31
2023/01/27 12:04:13;;;;;;;161.45;57.65;;;1.60;99.90;;;;;;2608262;46;20021;31
2023/01/27 12:13:37;;;;;;;153.60;53.22;;;1.50;99.90;;;;;;2601530;54;20824;31
2023/01/27 12:32:18;;;;;;;177.63;55.85;;;1.40;99.90;;;;;;2601288;54;20869;31
2023/01/27 13:03:32;;;;;;;148.00;56.88;;;1.50;99.90;;;;;;2602462;54;20583;31
2023/01/27 13:19:23;;;;;;;147.95;55.40;;;1.60;99.90;;;;;;2621708;47;20651;31
2023/01/27 13:27:39;;;;;;;136.38;49.90;;;1.60;99.90;;;;;;2602922;54;20819;31
2023/01/27 13:33:19;;;;;;;108.22;41.50;;;1.60;99.90;;;;;;2602890;54;20096;31
2023/01/27 13:36:13;;;;;;;140.97;54.33;;;1.70;99.90;;;;;;2602599;54;20851;31
2023/01/27 13:38:54;;;;;;;130.13;48.80;;;1.60;99.90;;;;;;2621322;47;21010;31
2023/01/27 13:41:48;;;;;;;133.73;53.42;;;1.70;99.90;;;;;;2602870;54;20093;31
2023/01/27 13:47:50;;;;;;;149.70;53.20;;;1.70;99.90;;;;;;2603669;54;20577;31
2023/01/27 13:50:46;;;;;;;154.00;52.20;;;1.80;99.90;;;;;;2621954;46;20065;31
2023/01/27 14:13:30;;;;;;;172.88;58.47;;;1.70;99.90;;;;;;2603003;54;20034;31
2023/01/27 14:38:18;;;;;;;133.97;48.83;;;1.60;99.90;;;;;;2601271;54;20935;31
2023/01/27 14:41:09;;;;;;;124.50;46.15;;;1.60;99.90;;;;;;2603467;54;21336;31
2023/01/27 14:43:49;;;;;;;143.45;46.80;;;1.60;99.90;;;;;;2622224;46;20573;31
2023/01/27 14:46:35;;;;;;;120.30;44.08;;;1.60;99.90;;;;;;2603509;54;20029;31
2023/01/27 14:52:40;;;;;;;115.55;43.95;;;1.60;99.90;;;;;;2603598;54;20697;31
2023/01/27 14:55:37;;;;;;;111.03;41.63;;;1.60;99.90;;;;;;2622383;46;20093;31
2023/01/27 14:58:18;;;;;;;112.75;42.00;;;1.60;99.90;;;;;;2621931;47;20023;31
2023/01/27 15:00:59;;;;;;;95.43;39.27;;;1.60;99.90;;;;;;2603509;54;20038;31
2023/01/27 15:04:04;;;;;;;84.63;37.33;;;1.60;99.90;;;;;;2603300;54;20027;31
2023/01/27 15:06:46;;;;;;;92.93;35.42;;;1.60;99.90;;;;;;2603548;54;20891;31
2023/01/27 15:25:37;;;;;;;76.32;34.72;;;1.60;99.90;;;;;;2603167;54;20990;31
2023/01/27 15:28:15;;;;;;;78.00;35.83;;;1.60;99.90;;;;;;2603666;54;20852;31
2023/01/27 15:31:24;;;;;;;73.22;32.28;;;1.50;99.90;;;;;;2603695;54;20030;31
2023/01/27 15:34:25;;;;;;;84.20;35.90;;;1.50;99.90;;;;;;2603263;54;20845;31
2023/01/27 15:37:05;;;;;;;91.07;40.95;;;1.60;99.90;;;;;;2603529;54;20235;31
2023/01/27 15:39:57;;;;;;;103.97;49.92;;;1.50;99.90;;;;;;2603441;54;20151;31
2023/01/27 15:43:07;;;;;;;88.85;44.25;;;1.60;99.90;;;;;;2603226;54;19975;31
2023/01/27 15:45:44;;;;;;;81.80;39.35;;;1.50;99.90;;;;;;2603303;54;20026;31
2023/01/27 15:57:34;;;;;;;86.05;36.53;;;1.60;99.90;;;;;;2601459;54;20866;31
2023/01/27 16:00:14;;;;;;;173.20;75.25;;;1.50;99.90;;;;;;2621509;46;20026;31
2023/01/27 16:02:56;;;;;;;99.68;45.25;;;1.60;99.90;;;;;;2603440;54;20546;31
2023/01/27 16:05:32;;;;;;;95.05;41.40;;;1.60;99.90;;;;;;2603308;54;20036;31
2023/01/27 16:08:14;;;;;;;86.63;38.93;;;1.60;99.90;;;;;;2603165;54;20880;31
2023/01/27 16:10:49;;;;;;;99.85;48.00;;;1.60;99.90;;;;;;2603513;54;21053;31
2023/01/27 16:13:27;;;;;;;91.22;41.13;;;1.60;99.90;;;;;;2603468;54;20874;31
2023/01/27 16:16:33;;;;;;;81.43;40.55;;;1.60;99.90;;;;;;2602590;54;20740;31
2023/01/27 16:19:21;;;;;;;80.77;38.73;;;1.60;99.90;;;;;;2621781;46;20082;31
2023/01/27 16:21:59;;;;;;;92.05;46.75;;;1.70;99.90;;;;;;2621526;46;20050;31
2023/01/27 16:24:38;;;;;;;99.47;47.17;;;1.60;99.90;;;;;;2603101;54;20038;31
2023/01/27 16:27:23;;;;;;;105.30;50.25;;;1.70;99.90;;;;;;2602407;54;20022;31
2023/01/27 16:30:00;;;;;;;114.35;60.35;;;1.70;99.90;;;;;;2621681;46;20568;31
2023/01/27 16:32:32;;;;;;;85.87;44.73;;;1.70;99.90;;;;;;2620995;46;20049;31
2023/01/27 16:35:17;;;;;;;124.35;63.63;;;1.70;99.90;;;;;;2603225;54;20831;31
2023/01/27 16:38:06;;;;;;;113.03;54.37;;;1.70;99.90;;;;;;2603049;54;20865;31
2023/01/27 16:40:42;;;;;;;102.53;49.40;;;1.70;99.90;;;;;;2603206;54;20238;31
2023/01/27 16:43:18;;;;;;;111.53;53.90;;;1.70;99.90;;;;;;2603474;54;20030;31
2023/01/27 16:45:56;;;;;;;94.15;47.55;;;1.70;99.90;;;;;;2603004;54;20988;31
2023/01/27 16:48:49;;;;;;;115.95;59.40;;;1.70;99.90;;;;;;2621751;46;20030;31
2023/01/27 16:51:39;;;;;;;128.02;72.20;;;1.80;99.90;;;;;;2603398;54;20027;31
2023/01/27 16:54:20;;;;;;;129.18;67.63;;;1.70;99.90;;;;;;2603093;54;20026;31
2023/01/27 16:57:02;;;;;;;99.70;50.60;;;1.70;99.90;;;;;;2603005;54;20033;31
2023/01/27 16:59:40;;;;;;;86.47;39.67;;;1.70;99.90;;;;;;2603125;54;20557;31
2023/01/27 17:02:27;;;;;;;85.70;39.83;;;1.80;99.90;;;;;;2701001;39;20473;31
2023/01/27 17:05:05;;;;;;;87.82;39.40;;;1.70;99.90;;;;;;2603437;54;20026;31
2023/01/27 17:07:49;;;;;;;99.27;41.77;;;1.70;99.90;;;;;;2603076;54;20874;31
2023/01/27 17:10:37;;;;;;;84.13;39.20;;;1.70;99.90;;;;;;2621596;47;20324;31
2023/01/27 17:16:38;;;;;;;74.93;38.25;;;1.70;99.90;;;;;;2602928;54;20065;31
2023/01/27 17:19:15;;;;;;;72.05;36.05;;;2.10;99.90;;;;;;2602919;54;22493;31
2023/01/27 17:21:55;;;;;;;71.60;35.75;;;2.10;99.90;;;;;;2603647;54;20023;31
2023/01/27 17:24:29;;;;;;;84.82;36.72;;;2.10;99.90;;;;;;2603654;54;20883;31
2023/01/27 17:27:11;;;;;;;87.57;42.47;;;2.20;99.90;;;;;;2603950;54;20769;31
2023/01/27 17:29:58;;;;;;;79.15;36.65;;;2.20;99.90;;;;;;2603769;54;20893;31
2023/01/27 17:32:38;;;;;;;80.28;37.35;;;2.10;99.90;;;;;;2622617;46;20027;31
2023/01/27 17:35:24;;;;;;;80.68;41.85;;;2.10;99.90;;;;;;2622108;46;20860;31
2023/01/27 17:38:08;;;;;;;89.38;44.58;;;2.00;99.90;;;;;;2603895;54;20760;31
2023/01/27 17:40:44;;;;;;;75.50;38.53;;;2.00;99.90;;;;;;2603691;54;20870;31
2023/01/27 17:43:31;;;;;;;90.32;44.55;;;2.00;99.90;;;;;;2603866;54;20935;31
2023/01/27 17:46:19;;;;;;;80.70;39.30;;;2.00;99.90;;;;;;2603797;54;20922;31
2023/01/27 17:48:57;;;;;;;83.93;41.90;;;2.00;99.90;;;;;;2621901;46;20050;31
2023/01/27 17:51:36;;;;;;;87.03;44.45;;;1.90;99.90;;;;;;2622179;46;20026;31
2023/01/27 17:54:22;;;;;;;120.30;62.83;;;1.90;99.90;;;;;;2603723;54;20081;31
2023/01/27 17:57:04;;;;;;;99.15;51.30;;;2.00;99.90;;;;;;2603803;54;20030;31
2023/01/27 17:59:45;;;;;;;100.10;51.95;;;1.90;99.90;;;;;;2603674;54;20808;31
2023/01/27 18:02:26;;;;;;;113.85;59.38;;;1.90;99.90;;;;;;2603723;54;20027;31
2023/01/27 18:05:00;;;;;;;97.23;46.50;;;1.90;99.90;;;;;;2622531;46;20030;31
2023/01/27 18:07:40;;;;;;;97.90;49.40;;;1.90;99.90;;;;;;2622226;46;20083;31
2023/01/27 18:10:28;;;;;;;92.80;46.30;;;1.90;99.90;;;;;;2603553;54;20871;31
2023/01/27 18:13:17;;;;;;;88.72;46.35;;;2.10;99.90;;;;;;2603559;54;20992;31
2023/01/27 18:16:03;;;;;;;80.40;38.97;;;2.20;99.90;;;;;;2606893;46;20038;31
2023/01/27 18:21:17;;;;;;;87.75;42.55;;;2.20;99.90;;;;;;2621938;46;20031;31
2023/01/27 18:24:01;;;;;;;83.45;42.83;;;2.20;99.90;;;;;;2603637;54;20877;31
2023/01/27 18:26:45;;;;;;;106.72;49.83;;;2.20;99.90;;;;;;2603683;54;21366;31
2023/01/27 18:31:58;;;;;;;105.55;50.20;;;2.10;99.90;;;;;;2720733;39;20547;31
2023/01/27 18:34:40;;;;;;;117.00;55.67;;;2.10;99.90;;;;;;2603504;54;20027;31
2023/01/27 18:37:32;;;;;;;124.30;59.80;;;2.10;99.90;;;;;;2603392;54;19941;31
2023/01/27 18:40:34;;;;;;;121.28;57.85;;;2.10;99.90;;;;;;2603323;54;20806;31
2023/01/27 18:43:17;;;;;;;100.90;47.05;;;2.10;99.90;;;;;;2622216;46;20026;31
2023/01/27 18:45:59;;;;;;;147.27;70.07;;;2.10;99.90;;;;;;2773361;31;20574;31
2023/01/27 18:48:49;;;;;;;111.90;57.63;;;2.10;99.90;;;;;;2603597;54;20056;31
2023/01/27 18:51:33;;;;;;;82.22;39.45;;;2.10;99.90;;;;;;2603488;54;20030;31
2023/01/27 18:54:27;;;;;;;88.93;40.08;;;2.10;99.90;;;;;;2621975;46;20042;31
2023/01/27 18:57:27;;;;;;;86.80;39.45;;;2.10;99.90;;;;;;2603455;54;20023;31
2023/01/27 19:00:39;;;;;;;96.68;43.35;;;2.00;99.90;;;;;;2603696;54;20827;31
2023/01/27 19:03:42;;;;;;;89.15;40.75;;;2.00;99.90;;;;;;2608826;46;21434;31
2023/01/27 19:09:57;;;;;;;80.47;39.58;;;2.00;99.90;;;;;;2621918;46;20608;31
2023/01/27 19:12:39;;;;;;;83.00;41.13;;;1.90;99.90;;;;;;2603445;54;20132;31
2023/01/27 19:15:22;;;;;;;90.88;41.33;;;1.90;99.90;;;;;;2603710;54;20106;31
2023/01/27 19:18:34;;;;;;;;;;;;;;;;;;;;;
2023/01/27 19:21:22;;;;;;;84.27;38.97;;;1.90;99.90;;;;;;2603635;54;20861;31
2023/01/27 19:24:15;;;;;;;76.07;35.30;;;1.80;99.90;;;;;;2603416;54;21013;31
2023/01/27 19:26:57;;;;;;;75.80;38.20;;;1.80;99.90;;;;;;2621844;46;20030;31
2023/01/27 19:29:42;;;;;;;81.63;39.72;;;1.70;99.90;;;;;;2603394;54;20030;31
2023/01/27 19:32:24;;;;;;;81.07;40.13;;;1.70;99.90;;;;;;2603208;54;20018;31
2023/01/27 19:38:08;;;;;;;80.47;38.30;;;1.70;99.90;;;;;;2603447;54;20022;31
2023/01/27 19:40:53;;;;;;;79.60;39.50;;;1.60;99.90;;;;;;2603324;54;20095;31
2023/01/27 19:44:01;;;;;;;89.45;41.30;;;1.60;99.90;;;;;;2603302;54;20085;31
2023/01/27 19:47:05;;;;;;;81.45;39.50;;;1.60;99.90;;;;;;2604306;46;20080;31
2023/01/27 19:50:00;;;;;;;89.70;43.17;;;1.60;99.90;;;;;;2701553;39;20551;31
2023/01/27 19:52:46;;;;;;;80.45;40.05;;;1.60;99.90;;;;;;2606831;46;20588;31
2023/01/27 19:55:41;;;;;;;86.50;39.20;;;1.60;99.90;;;;;;2603347;54;20042;31
2023/01/27 20:01:33;;;;;;;73.22;37.65;;;1.50;99.90;;;;;;2603418;54;20057;31
2023/01/27 20:04:33;;;;;;;88.15;41.67;;;1.50;99.90;;;;;;2603719;54;20053;31
2023/01/27 20:07:15;;;;;;;81.55;39.03;;;1.50;99.90;;;;;;2610901;46;20033;31
2023/01/27 20:13:01;;;;;;;85.20;40.70;;;1.50;99.90;;;;;;2621611;46;20838;31
2023/01/27 20:15:40;;;;;;;83.85;39.53;;;1.50;99.90;;;;;;2603445;54;20121;31
2023/01/27 20:21:22;;;;;;;88.95;43.00;;;1.60;99.90;;;;;;2603069;54;20871;31
2023/01/27 20:24:06;;;;;;;94.75;43.60;;;1.50;99.90;;;;;;2621536;46;20877;31
2023/01/27 20:26:59;;;;;;;104.15;46.10;;;1.60;99.90;;;;;;2603154;54;20023;31
2023/01/27 20:30:07;;;;;;;90.75;41.97;;;1.60;99.90;;;;;;2603335;54;20030;31
2023/01/27 20:57:35;;;;;;;75.30;33.60;;;1.40;99.90;;;;;;2602927;54;19997;31
2023/01/27 21:12:58;;;;;;;84.10;41.25;;;1.40;99.90;;;;;;2600608;54;20906;31
2023/01/27 21:15:49;;;;;;;89.40;36.40;;;1.40;99.90;;;;;;2602365;54;20242;31
2023/01/27 21:18:28;;;;;;;81.32;34.78;;;1.40;99.90;;;;;;2602065;54;20110;31
2023/01/27 21:59:21;;;;;;;91.10;44.10;;;1.40;99.90;;;;;;2601933;54;20027;31
2023/01/27 22:09:16;;;;;;;77.57;37.60;;;1.40;99.90;;;;;;2702429;39;21169;31
2023/01/27 22:47:25;;;;;;;72.30;35.15;;;1.50;99.90;;;;;;2602993;54;20909;31
2023/01/27 23:15:25;;;;;;;63.75;34.05;;;1.50;99.90;;;;;;2603668;54;20027;31
2023/01/27 23:21:31;;;;;;;59.88;29.40;;;1.40;99.90;;;;;;2603368;54;19941;31
2023/01/27 23:24:29;;;;;;;60.05;29.95;;;1.40;99.90;;;;;;2612551;46;20033;31
2023/01/27 23:27:18;;;;;;;59.05;28.55;;;1.40;99.90;;;;;;2603438;54;20038;31
2023/01/27 23:30:07;;;;;;;57.75;29.85;;;1.40;99.90;;;;;;2603427;54;20859;31
2023/01/27 23:33:08;;;;;;;56.80;28.10;;;1.40;99.90;;;;;;2610125;46;20034;31
2023/01/27 23:42:30;;;;;;;46.45;24.90;;;1.40;99.90;;;;;;2603360;54;20049;31
